createdAt,value
2022-09-06T00:01:19.467Z,13.20
2022-09-06T00:03:48.510Z,13.20
2022-09-06T00:06:21.273Z,13.10
2022-09-06T00:08:50.606Z,13.10
2022-09-06T00:11:34.521Z,13.00
2022-09-06T00:14:03.035Z,13.00
2022-09-06T00:16:31.656Z,13.00
2022-09-06T00:19:00.413Z,13.10
2022-09-06T00:21:32.371Z,13.10
2022-09-06T00:24:00.870Z,13.00
2022-09-06T00:26:51.040Z,13.00
2022-09-06T00:29:19.596Z,13.00
2022-09-06T00:31:48.211Z,13.00
2022-09-06T00:34:16.713Z,12.90
2022-09-06T00:36:46.676Z,13.00
2022-09-06T00:39:15.285Z,12.90
2022-09-06T00:41:44.033Z,12.90
2022-09-06T00:44:12.916Z,12.80
2022-09-06T00:46:46.836Z,12.80
2022-09-06T00:49:25.331Z,12.80
2022-09-06T00:52:00.281Z,12.80
2022-09-06T00:54:30.918Z,12.70
2022-09-06T00:57:00.498Z,12.70
2022-09-06T00:59:32.187Z,12.70
2022-09-06T01:02:01.116Z,12.60
2022-09-06T01:04:30.925Z,12.60
2022-09-06T01:07:22.534Z,12.80
2022-09-06T01:10:22.705Z,12.70
2022-09-06T01:13:02.390Z,12.70
2022-09-06T01:15:42.223Z,12.60
2022-09-06T01:18:30.141Z,12.60
2022-09-06T01:21:29.755Z,12.50
2022-09-06T01:25:34.599Z,12.50
2022-09-06T01:28:31.420Z,12.60
2022-09-06T01:31:19.701Z,12.60
2022-09-06T01:33:59.917Z,12.60
2022-09-06T01:36:54.334Z,12.60
2022-09-06T01:39:35.600Z,12.50
2022-09-06T01:42:11.071Z,12.40
2022-09-06T01:44:46.744Z,12.30
2022-09-06T01:47:38.112Z,12.30
2022-09-06T01:50:36.258Z,12.30
2022-09-06T01:53:26.141Z,12.40
2022-09-06T01:56:05.730Z,12.40
2022-09-06T01:59:21.662Z,12.30
2022-09-06T02:02:06.049Z,12.40
2022-09-06T02:05:05.946Z,12.40
2022-09-06T02:07:38.203Z,12.30
2022-09-06T02:10:38.501Z,12.30
2022-09-06T02:13:11.970Z,12.30
2022-09-06T02:15:46.719Z,12.30
2022-09-06T02:18:23.049Z,12.30
2022-09-06T02:20:58.195Z,12.20
2022-09-06T02:23:32.656Z,12.30
2022-09-06T02:26:08.296Z,12.20
2022-09-06T02:28:37.243Z,12.30
2022-09-06T02:31:15.511Z,12.30
2022-09-06T02:33:47.544Z,12.40
2022-09-06T02:36:16.797Z,12.30
2022-09-06T02:38:47.110Z,12.30
2022-09-06T02:41:22.591Z,12.20
2022-09-06T02:43:51.659Z,12.20
2022-09-06T02:46:20.506Z,12.20
2022-09-06T02:48:50.502Z,12.20
2022-09-06T02:51:19.538Z,12.20
2022-09-06T02:53:48.065Z,12.20
2022-09-06T02:56:16.709Z,12.20
2022-09-06T02:58:45.332Z,12.20
2022-09-06T03:01:13.880Z,12.20
2022-09-06T03:03:42.664Z,12.20
2022-09-06T03:06:12.526Z,12.20
2022-09-06T03:08:41.052Z,12.10
2022-09-06T03:11:09.612Z,12.10
2022-09-06T03:13:38.384Z,12.20
2022-09-06T03:16:07.058Z,12.20
2022-09-06T03:18:35.689Z,12.10
2022-09-06T03:21:04.907Z,12.20
2022-09-06T03:23:35.068Z,12.10
2022-09-06T03:26:03.673Z,12.10
2022-09-06T03:28:32.229Z,12.00
2022-09-06T03:31:00.933Z,12.00
2022-09-06T03:33:29.512Z,12.00
2022-09-06T03:36:01.212Z,12.00
2022-09-06T03:38:31.213Z,12.00
2022-09-06T03:41:01.213Z,11.90
2022-09-06T03:43:30.307Z,11.90
2022-09-06T03:45:59.184Z,11.80
2022-09-06T03:48:30.731Z,11.80
2022-09-06T03:51:00.711Z,11.80
2022-09-06T03:53:31.227Z,11.80
2022-09-06T03:56:01.216Z,11.80
2022-09-06T03:58:33.464Z,11.90
2022-09-06T04:01:07.757Z,12.00
2022-09-06T04:03:37.665Z,12.00
2022-09-06T04:06:07.964Z,12.00
2022-09-06T04:08:38.332Z,12.00
2022-09-06T04:11:08.416Z,12.10
2022-09-06T04:13:38.035Z,12.10
2022-09-06T04:16:07.798Z,12.10
2022-09-06T04:18:36.523Z,12.20
2022-09-06T04:21:05.331Z,12.20
2022-09-06T04:23:39.169Z,12.30
2022-09-06T04:26:09.824Z,12.30
2022-09-06T04:28:38.418Z,12.30
2022-09-06T04:31:07.154Z,12.40
2022-09-06T04:33:38.345Z,12.50
2022-09-06T04:36:10.461Z,12.60
2022-09-06T04:38:58.554Z,12.70
2022-09-06T04:41:28.490Z,12.80
2022-09-06T04:43:56.973Z,12.90
2022-09-06T04:46:28.640Z,12.90
2022-09-06T04:48:58.949Z,12.90
2022-09-06T04:51:27.491Z,12.90
2022-09-06T04:53:56.023Z,12.90
2022-09-06T04:56:28.027Z,13.00
2022-09-06T04:58:58.077Z,13.10
2022-09-06T05:01:26.727Z,13.10
2022-09-06T05:03:57.055Z,13.20
2022-09-06T05:06:27.457Z,13.40
2022-09-06T05:08:56.013Z,13.50
2022-09-06T05:11:24.553Z,13.60
2022-09-06T05:13:54.458Z,13.70
2022-09-06T05:16:22.991Z,13.80
2022-09-06T05:18:51.563Z,14.00
2022-09-06T05:21:26.018Z,14.10
2022-09-06T05:24:20.134Z,14.40
2022-09-06T05:26:48.642Z,14.50
2022-09-06T05:29:18.547Z,14.80
2022-09-06T05:31:47.132Z,14.90
2022-09-06T05:34:15.700Z,15.10
2022-09-06T05:36:45.472Z,15.30
2022-09-06T05:39:14.031Z,15.50
2022-09-06T05:41:42.641Z,15.70
2022-09-06T05:44:11.212Z,15.90
2022-09-06T05:46:45.317Z,16.10
2022-09-06T05:49:14.745Z,16.30
2022-09-06T05:51:43.374Z,16.40
2022-09-06T05:54:13.012Z,16.60
2022-09-06T05:56:41.521Z,16.80
2022-09-06T05:59:10.083Z,16.90
2022-09-06T06:01:38.603Z,17.10
2022-09-06T06:04:08.734Z,17.10
2022-09-06T06:06:37.319Z,17.20
2022-09-06T06:09:05.928Z,17.30
2022-09-06T06:11:34.585Z,17.40
2022-09-06T06:14:04.147Z,17.50
2022-09-06T06:16:33.118Z,17.60
2022-09-06T06:19:01.836Z,17.80
2022-09-06T06:21:34.197Z,17.90
2022-09-06T06:24:05.727Z,18.00
2022-09-06T06:26:37.127Z,18.20
2022-09-06T06:29:09.503Z,18.30
2022-09-06T06:31:39.965Z,18.40
2022-09-06T06:34:09.241Z,18.50
2022-09-06T06:36:39.466Z,18.60
2022-09-06T06:39:09.573Z,18.70
2022-09-06T06:41:38.243Z,18.70
2022-09-06T06:44:07.244Z,18.80
2022-09-06T06:46:38.232Z,19.00
2022-09-06T06:49:07.213Z,19.10
2022-09-06T06:51:39.291Z,19.20
2022-09-06T06:54:08.113Z,19.20
2022-09-06T06:56:40.834Z,19.20
2022-09-06T06:59:31.025Z,19.20
2022-09-06T07:01:59.799Z,19.20
2022-09-06T07:04:56.044Z,19.20
2022-09-06T07:13:00.596Z,19.70
2022-09-06T07:15:29.091Z,19.80
2022-09-06T07:17:58.579Z,19.80
2022-09-06T07:20:27.389Z,19.80
2022-09-06T07:25:54.441Z,19.80
2022-09-06T07:28:23.666Z,19.90
2022-09-06T07:30:56.212Z,20.10
2022-09-06T07:33:26.463Z,20.10
2022-09-06T07:35:59.902Z,20.20
2022-09-06T07:38:55.350Z,20.20
2022-09-06T07:41:24.086Z,20.20
2022-09-06T07:43:55.865Z,20.40
2022-09-06T07:46:24.435Z,20.50
2022-09-06T07:48:52.932Z,20.70
2022-09-06T07:51:23.492Z,20.80
2022-09-06T07:54:12.830Z,20.90
2022-09-06T07:56:45.364Z,21.10
2022-09-06T07:59:13.847Z,21.30
2022-09-06T08:01:43.084Z,21.30
2022-09-06T08:04:14.437Z,21.40
2022-09-06T08:09:35.207Z,21.50
2022-09-06T08:12:07.712Z,21.50
2022-09-06T08:15:00.975Z,21.60
2022-09-06T08:17:29.503Z,21.70
2022-09-06T08:19:58.132Z,22.00
2022-09-06T08:22:26.618Z,22.20
2022-09-06T08:24:55.127Z,22.40
2022-09-06T08:27:25.489Z,22.40
2022-09-06T08:29:54.049Z,22.50
2022-09-06T08:32:22.576Z,22.60
2022-09-06T08:34:51.069Z,22.70
2022-09-06T08:37:24.420Z,22.80
2022-09-06T08:39:53.770Z,22.80
2022-09-06T08:42:22.330Z,22.90
2022-09-06T08:44:56.500Z,22.90
2022-09-06T08:47:26.431Z,22.90
2022-09-06T08:50:02.031Z,23.00
2022-09-06T08:53:15.759Z,23.10
2022-09-06T08:55:50.211Z,22.90
2022-09-06T08:58:38.069Z,23.00
2022-09-06T09:01:15.336Z,22.90
2022-09-06T09:03:48.043Z,22.80
2022-09-06T09:06:16.576Z,22.90
2022-09-06T09:08:59.193Z,23.00
2022-09-06T09:11:28.760Z,23.20
2022-09-06T09:14:06.672Z,23.30
2022-09-06T09:16:36.953Z,23.30
2022-09-06T09:19:09.406Z,23.40
2022-09-06T09:21:41.128Z,23.60
2022-09-06T09:24:13.084Z,23.70
2022-09-06T09:26:52.283Z,23.80
2022-09-06T09:32:50.152Z,23.70
2022-09-06T09:35:28.156Z,23.60
2022-09-06T09:38:09.505Z,23.80
2022-09-06T09:40:50.119Z,23.90
2022-09-06T09:43:24.268Z,23.90
2022-09-06T09:46:30.259Z,24.00
2022-09-06T09:49:09.016Z,24.20
2022-09-06T09:51:40.217Z,24.40
2022-09-06T09:54:12.313Z,24.60
2022-09-06T09:56:48.449Z,24.70
2022-09-06T09:59:28.175Z,24.70
2022-09-06T10:02:00.179Z,24.70
2022-09-06T10:04:45.330Z,24.80
2022-09-06T10:07:18.777Z,24.90
2022-09-06T10:09:50.044Z,25.00
2022-09-06T10:12:28.275Z,25.20
2022-09-06T10:14:57.827Z,25.30
2022-09-06T10:17:34.140Z,25.50
2022-09-06T10:20:36.117Z,25.50
2022-09-06T10:23:17.589Z,25.50
2022-09-06T10:26:29.881Z,25.40
2022-09-06T10:29:06.527Z,25.30
2022-09-06T10:32:09.919Z,25.20
2022-09-06T10:35:05.535Z,25.30
2022-09-06T10:37:51.276Z,25.50
2022-09-06T10:40:33.123Z,25.70
2022-09-06T10:43:04.404Z,25.70
2022-09-06T10:45:47.321Z,25.70
2022-09-06T10:48:25.155Z,25.80
2022-09-06T10:50:58.875Z,25.90
2022-09-06T10:53:40.012Z,25.90
2022-09-06T10:56:19.190Z,25.90
2022-09-06T11:01:58.750Z,26.10
2022-09-06T11:07:30.286Z,26.00
2022-09-06T11:10:08.363Z,25.90
2022-09-06T11:12:47.428Z,25.90
2022-09-06T11:15:19.160Z,26.00
2022-09-06T11:17:54.588Z,26.10
2022-09-06T11:20:33.951Z,26.10
2022-09-06T11:23:48.310Z,26.10
2022-09-06T11:26:43.555Z,26.30
2022-09-06T11:29:21.067Z,26.50
2022-09-06T11:34:55.768Z,26.80
2022-09-06T11:37:30.742Z,26.80
2022-09-06T11:40:29.602Z,26.80
2022-09-06T11:43:17.760Z,26.60
2022-09-06T11:45:50.669Z,26.60
2022-09-06T11:48:49.403Z,26.60
2022-09-06T11:51:38.093Z,26.60
2022-09-06T11:54:31.264Z,26.70
2022-09-06T11:57:15.228Z,26.80
2022-09-06T12:00:01.020Z,26.80
2022-09-06T12:02:40.756Z,26.80
2022-09-06T12:05:19.923Z,26.80
2022-09-06T12:08:34.412Z,26.60
2022-09-06T12:11:30.292Z,26.60
2022-09-06T12:14:31.531Z,26.80
2022-09-06T12:17:29.475Z,27.10
2022-09-06T12:20:06.979Z,27.20
2022-09-06T12:23:05.716Z,27.20
2022-09-06T12:25:57.594Z,27.30
2022-09-06T12:28:43.971Z,27.30
2022-09-06T12:31:35.995Z,27.10
2022-09-06T12:34:14.748Z,27.00
2022-09-06T12:36:56.401Z,27.00
2022-09-06T12:39:25.723Z,26.90
2022-09-06T12:41:58.866Z,26.60
2022-09-06T12:44:44.567Z,26.40
2022-09-06T12:47:19.912Z,26.40
2022-09-06T12:50:07.584Z,26.30
2022-09-06T12:52:45.903Z,26.00
2022-09-06T12:55:23.964Z,25.50
2022-09-06T12:57:55.335Z,25.30
2022-09-06T13:00:27.653Z,25.40
2022-09-06T13:03:09.182Z,25.40
2022-09-06T13:05:43.630Z,25.50
2022-09-06T13:08:26.068Z,25.50
2022-09-06T13:10:55.645Z,25.50
2022-09-06T13:13:26.997Z,25.40
2022-09-06T13:15:58.713Z,25.30
2022-09-06T13:18:35.472Z,25.30
2022-09-06T13:21:09.198Z,25.30
2022-09-06T13:23:45.039Z,25.30
2022-09-06T13:26:13.625Z,25.30
2022-09-06T13:28:42.609Z,25.30
2022-09-06T13:31:20.425Z,25.20
2022-09-06T13:33:58.316Z,24.90
2022-09-06T13:36:31.441Z,24.70
2022-09-06T13:39:03.507Z,24.50
2022-09-06T13:41:42.944Z,24.30
2022-09-06T13:44:30.528Z,24.40
2022-09-06T13:46:59.583Z,24.50
2022-09-06T13:49:34.171Z,24.70
2022-09-06T13:52:09.280Z,24.70
2022-09-06T13:55:03.180Z,24.70
2022-09-06T13:57:31.640Z,24.50
2022-09-06T14:00:00.208Z,24.30
2022-09-06T14:02:28.995Z,24.00
2022-09-06T14:04:57.600Z,23.80
2022-09-06T14:07:27.519Z,23.70
2022-09-06T14:09:56.566Z,23.60
2022-09-06T14:12:25.274Z,23.60
2022-09-06T14:14:53.847Z,23.60
2022-09-06T14:17:22.379Z,23.60
2022-09-06T14:19:50.844Z,23.60
2022-09-06T14:22:19.345Z,23.50
2022-09-06T14:24:49.717Z,23.40
2022-09-06T14:27:18.632Z,23.30
2022-09-06T14:29:47.158Z,23.30
2022-09-06T14:32:19.229Z,23.20
2022-09-06T14:34:50.365Z,23.10
2022-09-06T14:37:18.921Z,23.10
2022-09-06T14:39:49.266Z,23.10
2022-09-06T14:42:17.792Z,23.10
2022-09-06T14:44:46.327Z,23.10
2022-09-06T14:47:24.068Z,23.00
2022-09-06T14:49:52.650Z,23.00
2022-09-06T14:52:21.117Z,22.90
2022-09-06T14:54:50.993Z,22.90
2022-09-06T14:57:29.352Z,22.80
2022-09-06T14:59:58.386Z,22.70
2022-09-06T15:02:35.264Z,22.80
2022-09-06T15:05:04.479Z,22.70
2022-09-06T15:07:33.437Z,22.70
2022-09-06T15:10:04.148Z,22.70
2022-09-06T15:12:32.625Z,22.70
2022-09-06T15:15:01.192Z,22.60
2022-09-06T15:17:29.710Z,22.60
2022-09-06T15:19:58.337Z,22.60
2022-09-06T15:22:26.893Z,22.50
2022-09-06T15:24:55.626Z,22.50
2022-09-06T15:27:25.469Z,22.50
2022-09-06T15:30:19.208Z,22.50
2022-09-06T15:32:47.708Z,22.40
2022-09-06T15:35:17.027Z,22.40
2022-09-06T15:37:46.045Z,22.40
2022-09-06T15:40:14.897Z,22.40
2022-09-06T15:42:45.039Z,22.50
2022-09-06T15:45:48.700Z,22.50
2022-09-06T15:48:18.854Z,22.40
2022-09-06T15:50:51.511Z,22.40
2022-09-06T15:53:20.565Z,22.40
2022-09-06T15:55:58.064Z,22.50
2022-09-06T15:58:29.910Z,22.50
2022-09-06T16:01:10.283Z,22.50
2022-09-06T16:03:41.995Z,22.50
2022-09-06T16:06:28.809Z,22.40
2022-09-06T16:09:01.016Z,22.40
2022-09-06T16:11:32.684Z,22.30
2022-09-06T16:14:03.273Z,22.20
2022-09-06T16:16:32.761Z,22.10
2022-09-06T16:19:01.583Z,22.00
2022-09-06T16:21:33.092Z,21.90
2022-09-06T16:24:27.593Z,21.80
2022-09-06T16:26:56.658Z,21.70
2022-09-06T16:29:27.042Z,21.60
2022-09-06T16:31:59.730Z,21.50
2022-09-06T16:34:28.671Z,21.40
2022-09-06T16:36:57.230Z,21.30
2022-09-06T16:39:25.845Z,21.30
2022-09-06T16:41:54.478Z,21.10
2022-09-06T16:44:23.002Z,21.10
2022-09-06T16:46:53.759Z,20.90
2022-09-06T16:49:22.369Z,20.80
2022-09-06T16:51:52.267Z,20.70
2022-09-06T16:54:20.985Z,20.60
2022-09-06T16:56:49.779Z,20.50
2022-09-06T16:59:19.017Z,20.40
2022-09-06T17:01:47.841Z,20.30
2022-09-06T17:04:18.494Z,20.30
2022-09-06T17:06:47.324Z,20.20
2022-09-06T17:09:19.432Z,20.10
2022-09-06T17:11:50.185Z,20.00
2022-09-06T17:14:19.142Z,19.90
2022-09-06T17:17:05.378Z,19.80
2022-09-06T17:19:39.474Z,19.80
2022-09-06T17:22:10.078Z,19.70
2022-09-06T17:24:39.502Z,19.70
2022-09-06T17:27:09.200Z,19.60
2022-09-06T17:29:39.974Z,19.60
2022-09-06T17:32:10.328Z,19.50
2022-09-06T17:34:41.990Z,19.50
2022-09-06T17:37:10.512Z,19.50
2022-09-06T17:39:40.755Z,19.50
2022-09-06T17:42:09.809Z,19.40
2022-09-06T17:44:38.376Z,19.30
2022-09-06T17:47:14.848Z,19.30
2022-09-06T17:49:52.949Z,19.20
2022-09-06T17:52:21.501Z,19.20
2022-09-06T17:54:50.053Z,19.10
2022-09-06T17:57:18.555Z,19.10
2022-09-06T17:59:47.068Z,19.00
2022-09-06T18:02:15.652Z,18.90
2022-09-06T18:04:44.242Z,18.80
2022-09-06T18:07:14.217Z,18.80
2022-09-06T18:09:42.758Z,18.70
2022-09-06T18:12:11.296Z,18.60
2022-09-06T18:14:40.210Z,18.60
2022-09-06T18:17:09.380Z,18.50
2022-09-06T18:19:39.241Z,18.40
2022-09-06T18:22:07.768Z,18.40
2022-09-06T18:24:37.695Z,18.30
2022-09-06T18:27:06.686Z,18.20
2022-09-06T18:29:35.345Z,18.20
2022-09-06T18:32:06.209Z,18.10
2022-09-06T18:34:35.420Z,18.00
2022-09-06T18:37:05.026Z,17.90
2022-09-06T18:39:33.646Z,17.90
2022-09-06T18:42:07.286Z,17.80
2022-09-06T18:44:36.870Z,17.70
2022-09-06T18:47:09.327Z,17.60
2022-09-06T18:49:43.303Z,17.50
2022-09-06T18:52:12.892Z,17.40
2022-09-06T18:54:41.666Z,17.40
2022-09-06T18:57:11.935Z,17.30
2022-09-06T18:59:40.686Z,17.30
2022-09-06T19:02:09.482Z,17.30
2022-09-06T19:04:38.450Z,17.20
2022-09-06T19:07:07.333Z,17.10
2022-09-06T19:09:36.130Z,17.00
2022-09-06T19:12:05.266Z,16.90
2022-09-06T19:14:35.416Z,16.80
2022-09-06T19:17:04.300Z,16.70
2022-09-06T19:19:33.096Z,16.60
2022-09-06T19:22:02.197Z,16.60
2022-09-06T19:24:30.957Z,16.50
2022-09-06T19:27:24.642Z,16.50
2022-09-06T19:29:54.972Z,16.50
2022-09-06T19:32:23.672Z,16.40
2022-09-06T19:34:52.369Z,16.40
2022-09-06T19:37:23.878Z,16.30
2022-09-06T19:39:52.525Z,16.30
2022-09-06T19:42:21.193Z,16.20
2022-09-06T19:44:54.813Z,16.20
2022-09-06T19:47:23.329Z,16.10
2022-09-06T19:49:51.863Z,16.10
2022-09-06T19:52:20.362Z,16.00
2022-09-06T19:54:48.826Z,16.00
2022-09-06T19:57:17.357Z,15.90
2022-09-06T19:59:45.845Z,15.90
2022-09-06T20:02:15.844Z,15.80
2022-09-06T20:04:44.400Z,15.90
2022-09-06T20:07:13.002Z,15.90
2022-09-06T20:09:41.663Z,15.90
2022-09-06T20:12:12.154Z,15.80
2022-09-06T20:14:43.754Z,15.80
2022-09-06T20:17:32.617Z,15.70
2022-09-06T20:20:02.249Z,15.70
2022-09-06T20:22:31.098Z,15.60
2022-09-06T20:25:00.927Z,15.50
2022-09-06T20:27:29.947Z,15.50
2022-09-06T20:29:59.217Z,15.50
2022-09-06T20:32:28.202Z,15.50
2022-09-06T20:34:56.687Z,15.50
2022-09-06T20:37:26.693Z,15.40
2022-09-06T20:39:55.652Z,15.40
2022-09-06T20:42:26.288Z,15.30
2022-09-06T20:44:54.963Z,15.30
2022-09-06T20:48:13.888Z,15.30
2022-09-06T20:50:42.413Z,15.30
2022-09-06T20:53:12.307Z,15.20
2022-09-06T20:55:40.898Z,15.10
2022-09-06T20:58:09.335Z,15.10
2022-09-06T21:00:41.175Z,15.00
2022-09-06T21:03:09.684Z,14.90
2022-09-06T21:05:43.533Z,14.90
2022-09-06T21:08:13.548Z,14.80
2022-09-06T21:10:42.103Z,14.90
2022-09-06T21:13:10.762Z,14.90
2022-09-06T21:15:41.713Z,14.80
2022-09-06T21:18:11.016Z,14.90
2022-09-06T21:20:39.542Z,14.90
2022-09-06T21:23:18.578Z,14.90
2022-09-06T21:25:54.373Z,14.80
2022-09-06T21:28:23.416Z,14.80
2022-09-06T21:31:18.755Z,14.80
2022-09-06T21:33:49.587Z,14.80
2022-09-06T21:36:21.285Z,14.80
2022-09-06T21:38:55.476Z,14.70
2022-09-06T21:41:25.138Z,14.70
2022-09-06T21:43:54.901Z,14.60
2022-09-06T21:46:31.722Z,14.60
2022-09-06T21:49:15.233Z,14.50
2022-09-06T21:51:44.311Z,14.50
2022-09-06T21:54:14.215Z,14.40
2022-09-06T21:56:42.803Z,14.40
2022-09-06T21:59:12.040Z,14.40
2022-09-06T22:01:55.564Z,14.40
2022-09-06T22:04:50.713Z,14.30
2022-09-06T22:07:19.201Z,14.20
2022-09-06T22:09:49.621Z,14.20
2022-09-06T22:12:18.522Z,14.10
2022-09-06T22:14:47.693Z,14.10
2022-09-06T22:17:16.267Z,14.10
2022-09-06T22:19:44.813Z,14.10
2022-09-06T22:22:13.301Z,14.10
2022-09-06T22:24:41.833Z,14.00
2022-09-06T22:27:11.655Z,14.00
2022-09-06T22:29:40.195Z,14.00
2022-09-06T22:32:08.672Z,13.90
2022-09-06T22:34:37.276Z,13.90
2022-09-06T22:37:05.972Z,13.80
2022-09-06T22:39:34.534Z,13.90
2022-09-06T22:42:03.142Z,13.90
2022-09-06T22:44:33.021Z,14.00
2022-09-06T22:47:01.630Z,14.00
2022-09-06T22:49:30.157Z,14.00
2022-09-06T22:51:58.765Z,13.90
2022-09-06T22:54:27.303Z,13.90
2022-09-06T22:56:55.842Z,13.90
2022-09-06T22:59:24.319Z,13.90
2022-09-06T23:01:54.215Z,13.90
2022-09-06T23:04:22.792Z,14.00
2022-09-06T23:06:51.429Z,13.90
2022-09-06T23:09:20.053Z,13.90
2022-09-06T23:11:48.551Z,13.90
2022-09-06T23:14:17.281Z,13.90
2022-09-06T23:16:45.829Z,13.80
2022-09-06T23:19:15.888Z,13.80
2022-09-06T23:21:44.457Z,13.80
2022-09-06T23:24:13.217Z,13.80
2022-09-06T23:26:41.760Z,13.80
2022-09-06T23:29:10.279Z,13.80
2022-09-06T23:32:04.192Z,13.70
2022-09-06T23:34:34.155Z,13.70
2022-09-06T23:37:02.748Z,13.70
2022-09-06T23:39:31.351Z,13.70
2022-09-06T23:42:02.061Z,13.70
2022-09-06T23:44:30.561Z,13.60
2022-09-06T23:46:59.119Z,13.60
2022-09-06T23:49:27.764Z,13.60
2022-09-06T23:51:57.726Z,13.50
2022-09-06T23:54:26.280Z,13.50
2022-09-06T23:56:54.784Z,13.50
2022-09-06T23:59:23.338Z,13.50
